createdAt,value
2022-11-15T00:00:16.876Z,76.03
2022-11-15T00:05:37.500Z,75.68
2022-11-15T00:10:59.661Z,75.99
2022-11-15T00:16:20.073Z,75.77
2022-11-15T00:21:40.313Z,75.89
2022-11-15T00:27:01.066Z,76.02
2022-11-15T00:32:21.536Z,75.99
2022-11-15T00:37:41.917Z,75.94
2022-11-15T00:43:02.517Z,76.03
2022-11-15T00:48:23.559Z,76.14
2022-11-15T00:53:43.952Z,75.99
2022-11-15T00:59:04.300Z,76.19
2022-11-15T01:04:24.560Z,76.45
2022-11-15T01:09:44.807Z,76.39
2022-11-15T01:15:06.523Z,76.55
2022-11-15T01:20:26.829Z,76.56
2022-11-15T01:25:47.219Z,76.65
2022-11-15T01:31:13.285Z,76.96
2022-11-15T01:36:33.982Z,76.94
2022-11-15T01:41:54.551Z,77.32
2022-11-15T01:47:21.909Z,77.53
2022-11-15T01:52:43.842Z,77.53
2022-11-15T01:58:06.680Z,77.73
2022-11-15T02:03:37.934Z,77.88
2022-11-15T02:08:59.380Z,77.70
2022-11-15T02:14:21.763Z,77.52
2022-11-15T02:20:06.585Z,77.61
2022-11-15T02:25:50.348Z,77.54
2022-11-15T02:31:19.582Z,77.65
2022-11-15T02:36:47.128Z,77.67
2022-11-15T02:42:34.872Z,77.40
2022-11-15T02:47:59.390Z,77.22
2022-11-15T02:53:25.401Z,77.20
2022-11-15T02:59:22.732Z,77.48
2022-11-15T03:04:54.242Z,77.25
2022-11-15T03:10:25.900Z,77.42
2022-11-15T03:16:03.897Z,77.03
2022-11-15T03:21:26.157Z,77.00
2022-11-15T03:26:49.252Z,76.92
2022-11-15T03:32:16.598Z,77.24
2022-11-15T03:38:14.398Z,77.09
2022-11-15T03:43:43.024Z,77.09
2022-11-15T03:49:15.264Z,77.16
2022-11-15T03:54:36.020Z,76.83
2022-11-15T03:59:56.289Z,77.15
2022-11-15T04:05:16.838Z,77.05
2022-11-15T04:10:37.136Z,76.91
2022-11-15T04:15:57.707Z,76.95
2022-11-15T04:21:36.330Z,76.90
2022-11-15T04:26:56.576Z,76.85
2022-11-15T04:32:16.947Z,76.88
2022-11-15T04:37:37.342Z,77.08
2022-11-15T04:43:03.368Z,77.02
2022-11-15T04:48:26.799Z,77.02
2022-11-15T04:53:47.182Z,77.16
2022-11-15T04:59:07.449Z,77.01
2022-11-15T05:04:28.227Z,76.99
2022-11-15T05:09:48.605Z,77.03
2022-11-15T05:15:09.934Z,77.07
2022-11-15T05:20:30.337Z,76.90
2022-11-15T05:25:50.596Z,76.99
2022-11-15T05:31:14.649Z,77.00
2022-11-15T05:36:39.282Z,77.06
2022-11-15T05:42:11.807Z,76.99
2022-11-15T05:47:33.015Z,76.83
2022-11-15T05:52:53.486Z,76.81
2022-11-15T05:58:13.927Z,77.10
2022-11-15T06:03:34.724Z,77.09
2022-11-15T06:08:55.237Z,77.07
2022-11-15T06:14:15.963Z,77.09
2022-11-15T06:19:36.563Z,77.08
2022-11-15T06:25:00.240Z,76.79
2022-11-15T06:30:26.965Z,76.94
2022-11-15T06:35:47.650Z,76.92
2022-11-15T06:41:11.395Z,76.92
2022-11-15T06:46:32.412Z,77.03
2022-11-15T06:51:53.191Z,77.34
2022-11-15T06:57:13.363Z,77.19
2022-11-15T07:02:33.603Z,77.45
2022-11-15T07:07:59.172Z,77.45
2022-11-15T07:13:19.928Z,77.60
2022-11-15T07:18:42.088Z,77.86
2022-11-15T07:24:02.410Z,77.88
2022-11-15T07:29:22.403Z,78.07
2022-11-15T07:34:42.952Z,78.48
2022-11-15T07:40:03.884Z,78.30
2022-11-15T07:45:27.531Z,78.50
2022-11-15T07:50:48.571Z,78.53
2022-11-15T07:56:09.461Z,78.89
2022-11-15T08:01:30.339Z,78.85
2022-11-15T08:06:51.162Z,79.05
2022-11-15T08:12:11.868Z,79.08
2022-11-15T08:17:34.072Z,79.36
2022-11-15T08:22:54.631Z,79.48
2022-11-15T08:28:18.774Z,79.55
2022-11-15T08:33:39.472Z,79.75
2022-11-15T08:39:00.394Z,79.77
2022-11-15T08:44:20.604Z,79.73
2022-11-15T08:49:41.111Z,79.75
2022-11-15T08:55:01.781Z,79.77
2022-11-15T09:00:22.547Z,79.81
2022-11-15T09:05:44.216Z,80.12
2022-11-15T09:11:09.652Z,80.26
2022-11-15T09:16:32.248Z,80.34
2022-11-15T09:21:52.960Z,79.68
2022-11-15T09:27:14.413Z,79.49
2022-11-15T09:32:39.022Z,80.05
2022-11-15T09:38:00.413Z,80.49
2022-11-15T09:43:42.720Z,80.69
2022-11-15T09:49:04.377Z,80.45
2022-11-15T09:54:53.780Z,80.67
2022-11-15T10:00:23.945Z,80.78
2022-11-15T10:05:26.453Z,80.92
2022-11-15T10:10:40.083Z,80.83
2022-11-15T10:15:46.675Z,81.00
2022-11-15T10:21:00.492Z,81.08
2022-11-15T10:26:06.883Z,81.07
2022-11-15T10:31:30.132Z,81.40
2022-11-15T10:36:33.530Z,81.38
2022-11-15T10:41:41.516Z,81.41
2022-11-15T10:46:47.440Z,81.21
2022-11-15T10:51:54.065Z,81.39
2022-11-15T10:57:02.162Z,81.32
2022-11-15T11:02:24.038Z,81.31
2022-11-15T11:07:29.998Z,81.37
2022-11-15T11:12:34.322Z,81.38
2022-11-15T11:17:54.824Z,81.20
2022-11-15T11:23:41.357Z,81.29
2022-11-15T11:28:49.793Z,81.12
2022-11-15T11:34:30.776Z,81.22
2022-11-15T11:39:52.685Z,81.21
2022-11-15T11:45:33.003Z,81.17
2022-11-15T11:50:38.264Z,81.15
2022-11-15T11:55:54.235Z,81.14
2022-11-15T12:01:21.328Z,81.09
2022-11-15T12:06:43.693Z,81.06
2022-11-15T12:11:48.314Z,81.08
2022-11-15T12:16:51.158Z,81.13
2022-11-15T12:22:04.290Z,81.02
2022-11-15T12:27:28.576Z,81.02
2022-11-15T12:32:34.938Z,81.10
2022-11-15T12:37:39.895Z,80.93
2022-11-15T12:42:58.350Z,80.96
2022-11-15T12:48:18.610Z,80.88
2022-11-15T12:53:26.591Z,80.75
2022-11-15T12:58:53.730Z,80.42
2022-11-15T13:04:20.650Z,80.48
2022-11-15T13:09:33.039Z,80.52
2022-11-15T13:14:45.856Z,80.35
2022-11-15T13:19:53.571Z,80.10
2022-11-15T13:24:56.275Z,80.50
2022-11-15T13:29:58.552Z,80.30
2022-11-15T13:35:02.982Z,80.13
2022-11-15T13:40:22.788Z,80.19
2022-11-15T13:45:25.816Z,80.04
2022-11-15T13:50:37.759Z,79.99
2022-11-15T13:55:39.709Z,80.00
2022-11-15T14:00:46.240Z,79.99
2022-11-15T14:06:13.218Z,79.89
2022-11-15T14:11:19.387Z,79.68
2022-11-15T14:16:22.754Z,79.62
2022-11-15T14:21:24.996Z,79.54
2022-11-15T14:26:32.987Z,79.59
2022-11-15T14:31:38.649Z,79.39
2022-11-15T14:36:45.835Z,79.21
2022-11-15T14:41:47.821Z,79.28
2022-11-15T14:46:50.127Z,79.29
2022-11-15T14:51:52.130Z,79.37
2022-11-15T14:56:54.341Z,79.38
2022-11-15T15:01:56.534Z,79.24
2022-11-15T15:06:58.633Z,79.18
2022-11-15T15:12:06.009Z,79.13
2022-11-15T15:17:08.805Z,79.06
2022-11-15T15:22:22.775Z,78.99
2022-11-15T15:27:27.292Z,78.81
2022-11-15T15:32:29.302Z,78.85
2022-11-15T15:37:34.169Z,78.68
2022-11-15T15:42:36.123Z,78.59
2022-11-15T15:47:38.952Z,78.38
2022-11-15T15:52:40.772Z,78.55
2022-11-15T15:57:42.801Z,78.36
2022-11-15T16:02:44.892Z,78.29
2022-11-15T16:07:48.783Z,78.03
2022-11-15T16:12:50.850Z,78.29
2022-11-15T16:17:55.608Z,77.92
2022-11-15T16:22:57.801Z,78.03
2022-11-15T16:27:59.846Z,77.74
2022-11-15T16:33:01.867Z,77.79
2022-11-15T16:38:03.698Z,77.48
2022-11-15T16:43:06.784Z,77.60
2022-11-15T16:48:20.807Z,77.33
2022-11-15T16:53:23.762Z,77.66
2022-11-15T16:58:26.112Z,77.39
2022-11-15T17:03:28.854Z,77.47
2022-11-15T17:08:31.250Z,77.44
2022-11-15T17:13:36.414Z,77.54
2022-11-15T17:18:39.077Z,77.40
2022-11-15T17:23:41.120Z,77.23
2022-11-15T17:28:43.117Z,77.32
2022-11-15T17:33:45.043Z,77.11
2022-11-15T17:38:50.525Z,77.11
2022-11-15T17:43:53.152Z,77.48
2022-11-15T17:48:56.447Z,77.31
2022-11-15T17:53:58.697Z,77.04
2022-11-15T17:59:01.291Z,76.61
2022-11-15T18:04:08.060Z,76.59
2022-11-15T18:09:09.910Z,76.48
2022-11-15T18:14:14.766Z,76.70
2022-11-15T18:19:16.693Z,76.60
2022-11-15T18:24:18.554Z,76.74
2022-11-15T18:29:21.952Z,76.93
2022-11-15T18:34:27.195Z,77.13
2022-11-15T18:39:29.496Z,77.39
2022-11-15T18:44:31.500Z,77.30
2022-11-15T18:49:33.452Z,77.76
2022-11-15T18:54:35.309Z,77.63
2022-11-15T18:59:37.412Z,77.71
2022-11-15T19:04:39.612Z,77.76
2022-11-15T19:09:41.537Z,77.68
2022-11-15T19:14:43.643Z,77.70
2022-11-15T19:19:45.558Z,77.76
2022-11-15T19:24:47.554Z,77.76
2022-11-15T19:29:49.554Z,77.95
2022-11-15T19:34:51.302Z,78.16
2022-11-15T19:39:53.128Z,78.05
2022-11-15T19:44:55.083Z,77.80
2022-11-15T19:49:56.822Z,77.88
2022-11-15T19:54:58.818Z,77.71
2022-11-15T20:00:06.792Z,77.25
2022-11-15T20:05:12.918Z,77.24
2022-11-15T20:10:20.691Z,77.39
2022-11-15T20:15:22.947Z,77.45
2022-11-15T20:20:25.561Z,77.62
2022-11-15T20:25:27.459Z,77.40
2022-11-15T20:30:29.285Z,77.10
2022-11-15T20:35:31.270Z,77.00
2022-11-15T20:40:33.324Z,76.93
2022-11-15T20:45:35.177Z,76.96
2022-11-15T20:50:42.664Z,76.99
2022-11-15T20:55:47.977Z,77.13
2022-11-15T21:00:50.144Z,77.19
2022-11-15T21:05:53.996Z,77.43
2022-11-15T21:11:14.420Z,77.41
2022-11-15T21:16:17.246Z,77.09
2022-11-15T21:21:19.078Z,77.38
2022-11-15T21:26:20.867Z,77.20
2022-11-15T21:31:23.083Z,77.21
2022-11-15T21:36:25.288Z,77.23
2022-11-15T21:41:27.406Z,76.85
2022-11-15T21:46:30.377Z,76.85
2022-11-15T21:51:32.590Z,76.97
2022-11-15T21:56:34.397Z,76.77
2022-11-15T22:01:54.666Z,76.78
2022-11-15T22:06:56.553Z,76.63
2022-11-15T22:11:58.380Z,76.58
2022-11-15T22:17:00.301Z,76.80
2022-11-15T22:22:02.193Z,77.02
2022-11-15T22:27:04.207Z,76.88
2022-11-15T22:32:06.045Z,76.88
2022-11-15T22:37:20.592Z,76.94
2022-11-15T22:42:24.110Z,77.08
2022-11-15T22:47:28.122Z,77.09
2022-11-15T22:52:30.001Z,77.07
2022-11-15T22:57:31.885Z,77.05
2022-11-15T23:02:33.714Z,76.93
2022-11-15T23:07:35.655Z,77.02
2022-11-15T23:12:56.051Z,77.22
2022-11-15T23:17:57.961Z,77.31
2022-11-15T23:22:59.911Z,77.64
2022-11-15T23:28:05.658Z,77.97
2022-11-15T23:33:31.405Z,77.96
2022-11-15T23:38:37.367Z,78.11
2022-11-15T23:43:39.290Z,78.21
2022-11-15T23:48:41.176Z,78.46
2022-11-15T23:53:43.169Z,78.38
2022-11-15T23:58:46.155Z,78.67
